Time;durP1;ratioP1;P1;durP2;ratioP2;P2;SDS_P1;SDS_P2;PMS_P1;PMS_P2;Temp;Humidity;BMP_temperature;BMP_pressure;BME280_temperature;BME280_humidity;BME280_pressure;Samples;Min_cycle;Max_cycle;Signal;HPM_P1;HPM_P2
2021/11/08 00:02:31;;;;;;;10.00;6.10;;;;;;;5.56;76.82;98527.90;235628;1199;22927;-72
2021/11/08 00:07:35;;;;;;;9.10;5.90;;;;;;;5.47;77.26;98528.67;235518;1199;24060;-73
2021/11/08 00:12:42;;;;;;;8.00;5.70;;;;;;;5.39;77.07;98541.13;235531;1199;25020;-71
2021/11/08 00:18:04;;;;;;;8.70;5.40;;;;;;;5.31;77.50;98535.20;235542;1199;24181;-73
2021/11/08 00:23:08;;;;;;;7.20;4.50;;;;;;;5.20;77.71;98535.85;235775;1199;24116;-71
2021/11/08 00:28:14;;;;;;;7.80;5.30;;;;;;;5.09;78.10;98539.36;235691;1197;24060;-71
2021/11/08 00:33:19;;;;;;;8.90;5.30;;;;;;;5.01;78.50;98543.35;235512;1199;22563;-73
2021/11/08 00:38:22;;;;;;;9.20;5.40;;;;;;;4.91;78.42;98549.60;235753;1196;22542;-74
2021/11/08 00:43:26;;;;;;;6.30;5.30;;;;;;;4.83;78.49;98549.70;235711;1192;24089;-73
2021/11/08 00:48:32;;;;;;;6.30;4.40;;;;;;;4.77;78.51;98549.84;235576;1193;25112;-73
2021/11/08 00:53:35;;;;;;;8.10;5.50;;;;;;;4.72;78.71;98554.73;235576;1199;22471;-73
2021/11/08 00:58:40;;;;;;;8.60;5.20;;;;;;;4.65;78.57;98561.64;235643;1199;23998;-73
2021/11/08 01:03:45;;;;;;;8.40;4.80;;;;;;;4.57;78.82;98560.73;235768;1192;22529;-74
2021/11/08 01:09:02;;;;;;;7.40;4.90;;;;;;;4.49;78.55;98561.69;235865;1199;22419;-73
2021/11/08 01:14:16;;;;;;;5.70;3.90;;;;;;;4.45;78.75;98565.36;235342;1200;22448;-72
2021/11/08 01:19:20;;;;;;;5.10;3.80;;;;;;;4.51;79.48;98573.48;235607;1184;24113;-74
2021/11/08 01:24:23;;;;;;;5.50;3.80;;;;;;;4.57;79.33;98583.02;235572;1199;24111;-74
2021/11/08 01:29:38;;;;;;;6.00;4.10;;;;;;;4.59;79.34;98584.52;235796;1199;22634;-72
2021/11/08 01:34:41;;;;;;;5.50;4.30;;;;;;;4.55;79.77;98594.26;235346;1199;24793;-72
2021/11/08 01:39:44;;;;;;;4.90;3.80;;;;;;;4.51;79.65;98598.30;235632;1193;24060;-73
2021/11/08 01:44:50;;;;;;;8.70;4.60;;;;;;;4.50;79.79;98602.59;235352;1199;24084;-74
2021/11/08 01:49:52;;;;;;;7.70;4.60;;;;;;;4.55;80.05;98606.30;235469;1199;24040;-71
2021/11/08 01:54:55;;;;;;;5.90;4.20;;;;;;;4.65;80.29;98608.29;235153;1200;24057;-71
2021/11/08 02:00:00;;;;;;;5.50;4.00;;;;;;;4.73;80.04;98615.36;235410;1193;24048;-71
2021/11/08 02:05:04;;;;;;;7.00;4.20;;;;;;;4.81;79.65;98615.84;235798;1199;22560;-74
2021/11/08 02:10:21;;;;;;;5.80;4.40;;;;;;;4.89;79.84;98625.98;235766;1197;23038;-73
2021/11/08 02:15:36;;;;;;;6.40;4.80;;;;;;;4.97;79.92;98634.38;235541;1199;24113;-73
2021/11/08 02:20:45;;;;;;;6.90;4.20;;;;;;;5.05;79.75;98633.42;234966;1193;24152;-73
2021/11/08 02:25:53;;;;;;;6.00;4.70;;;;;;;5.12;79.45;98634.96;235809;1193;26140;-72
2021/11/08 02:31:17;;;;;;;6.50;4.80;;;;;;;5.16;79.24;98637.27;235814;1199;22536;-73
2021/11/08 02:36:21;;;;;;;7.40;4.90;;;;;;;5.22;79.34;98636.61;235477;1199;22473;-70
2021/11/08 02:41:25;;;;;;;8.50;5.30;;;;;;;5.26;79.34;98642.91;235929;1199;22466;-73
2021/11/08 02:46:30;;;;;;;6.00;4.80;;;;;;;5.28;79.07;98641.70;235658;1194;24101;-73
2021/11/08 02:51:53;;;;;;;6.50;5.20;;;;;;;5.27;79.15;98641.48;235955;1199;24043;-74
2021/11/08 02:57:15;;;;;;;8.00;5.00;;;;;;;5.19;78.98;98651.67;235739;1199;25131;-74
2021/11/08 03:02:27;;;;;;;7.00;5.90;;;;;;;5.11;78.82;98651.80;235677;1199;24040;-73
2021/11/08 03:07:47;;;;;;;7.40;4.90;;;;;;;5.03;78.94;98650.77;235753;1199;24085;-73
2021/11/08 03:12:53;;;;;;;8.00;5.20;;;;;;;4.97;79.21;98653.92;235680;1199;24404;-73
2021/11/08 03:18:29;;;;;;;5.50;4.70;;;;;;;4.87;79.32;98654.73;235866;1199;22503;-72
2021/11/08 03:23:33;;;;;;;6.80;5.00;;;;;;;4.75;79.49;98650.82;235388;1199;24124;-73
2021/11/08 03:28:37;;;;;;;7.40;5.10;;;;;;;4.66;79.30;98658.45;235800;1199;25308;-71
2021/11/08 03:33:40;;;;;;;7.30;5.30;;;;;;;4.60;79.46;98661.00;235772;1192;24107;-72
2021/11/08 03:38:45;;;;;;;7.90;5.60;;;;;;;4.58;79.44;98664.70;235884;1199;25279;-73
2021/11/08 03:43:48;;;;;;;5.70;4.80;;;;;;;4.51;79.35;98674.38;234935;1201;22433;-73
2021/11/08 03:48:55;;;;;;;6.70;5.00;;;;;;;4.43;79.50;98672.25;235472;1199;22491;-74
2021/11/08 03:54:17;;;;;;;6.50;4.70;;;;;;;4.45;79.75;98671.84;235439;1199;25288;-72
2021/11/08 03:59:20;;;;;;;10.80;5.30;;;;;;;4.52;79.89;98667.13;235095;1200;25381;-73
2021/11/08 04:04:31;;;;;;;7.90;5.30;;;;;;;4.61;79.79;98672.69;235770;1199;24206;-73
2021/11/08 04:09:34;;;;;;;6.10;4.90;;;;;;;4.72;79.90;98677.06;235470;1199;25267;-74
2021/11/08 04:14:40;;;;;;;6.10;4.80;;;;;;;4.82;80.06;98678.48;235496;1194;23971;-74
2021/11/08 04:19:44;;;;;;;7.50;5.10;;;;;;;4.91;80.00;98681.69;235826;1199;22449;-71
2021/11/08 04:24:47;;;;;;;7.90;4.50;;;;;;;4.99;79.69;98673.80;235418;1199;25408;-73
2021/11/08 04:29:50;;;;;;;6.70;5.30;;;;;;;5.09;79.63;98681.61;235093;1200;26210;-71
2021/11/08 04:35:02;;;;;;;9.70;8.00;;;;;;;5.14;79.46;98674.81;235030;1200;25327;-70
2021/11/08 04:40:17;;;;;;;9.90;8.40;;;;;;;5.20;79.19;98684.09;234988;1199;24682;-71
2021/11/08 05:33:14;;;;;;;5.90;4.80;;;;;;;5.42;78.58;98720.52;235072;1200;24082;-73
2021/11/08 05:38:17;;;;;;;6.40;4.70;;;;;;;5.45;78.66;98722.02;235530;1199;22433;-72
2021/11/08 05:43:20;;;;;;;5.80;5.00;;;;;;;5.50;78.55;98730.08;235546;1192;24190;-70
2021/11/08 05:48:25;;;;;;;7.00;4.90;;;;;;;5.55;78.27;98736.91;235778;1199;22504;-73
2021/11/08 05:53:27;;;;;;;8.30;4.60;;;;;;;5.59;78.44;98738.86;235870;1194;22447;-71
2021/11/08 06:52:37;;;;;;;7.10;4.50;;;;;;;6.16;77.26;98840.69;235804;1177;24073;-73
2021/11/08 06:57:47;;;;;;;6.20;4.20;;;;;;;6.23;76.99;98841.84;236305;1199;22447;-75
2021/11/08 07:02:51;;;;;;;9.40;3.70;;;;;;;6.28;76.81;98852.52;236471;1198;25281;-74
2021/11/08 07:07:55;;;;;;;7.70;5.10;;;;;;;6.39;76.66;98854.01;235727;1193;22563;-78
2021/11/08 07:13:07;;;;;;;6.70;3.70;;;;;;;6.44;75.88;98861.70;235615;1192;22549;-75
2021/11/08 07:18:25;;;;;;;5.00;3.30;;;;;;;6.44;75.54;98867.33;235578;1199;24204;-76
2021/11/08 07:23:27;;;;;;;3.70;3.00;;;;;;;6.46;75.51;98870.85;235878;1192;22435;-75
2021/11/08 07:28:34;;;;;;;5.10;3.60;;;;;;;6.48;75.55;98876.93;235571;1199;22437;-76
2021/11/08 07:33:37;;;;;;;6.30;2.90;;;;;;;6.55;75.12;98880.91;235407;1193;22517;-75
2021/11/08 07:38:40;;;;;;;5.00;3.50;;;;;;;6.63;74.83;98881.48;235488;1193;25310;-76
2021/11/08 07:43:46;;;;;;;8.90;3.40;;;;;;;6.70;74.73;98877.19;235487;1200;24015;-76
2021/11/08 07:48:49;;;;;;;4.50;2.50;;;;;;;6.80;74.34;98878.98;235551;1192;22654;-75
2021/11/08 07:53:52;;;;;;;5.00;2.80;;;;;;;6.93;74.37;98880.21;235451;1193;23989;-76
2021/11/08 07:58:55;;;;;;;6.90;3.00;;;;;;;7.11;74.14;98875.14;236246;1192;24084;-76
2021/11/08 08:03:58;;;;;;;3.70;2.80;;;;;;;7.33;74.15;98875.73;235839;1192;24081;-75
2021/11/08 08:09:11;;;;;;;6.10;2.80;;;;;;;7.49;73.27;98880.92;235319;1200;22769;-75
2021/11/08 08:14:16;;;;;;;6.20;2.80;;;;;;;7.59;72.65;98885.61;235431;1200;22446;-75
2021/11/08 08:19:20;;;;;;;4.70;3.10;;;;;;;7.70;71.99;98892.34;235602;1194;22445;-75
2021/11/08 08:24:23;;;;;;;5.90;3.20;;;;;;;7.79;71.91;98898.17;236077;1193;24007;-75
2021/11/08 08:29:33;;;;;;;5.90;2.80;;;;;;;7.88;71.64;98902.73;235414;1193;24101;-75
2021/11/08 08:34:51;;;;;;;5.80;3.20;;;;;;;7.94;71.00;98913.04;235727;1196;25103;-74
2021/11/08 08:39:54;;;;;;;4.90;2.80;;;;;;;7.96;70.32;98918.37;235385;1177;24072;-73
2021/11/08 08:44:58;;;;;;;6.70;3.70;;;;;;;7.96;70.43;98923.55;235621;1198;22563;-77
2021/11/08 08:50:00;;;;;;;8.20;4.10;;;;;;;8.08;70.69;98926.55;235616;1197;22443;-74
2021/11/08 08:55:05;;;;;;;9.50;4.70;;;;;;;8.22;70.34;98923.97;235859;1193;24098;-75
2021/11/08 09:00:12;;;;;;;8.10;3.90;;;;;;;8.21;69.67;98928.61;236032;1193;23784;-74
2021/11/08 09:05:25;;;;;;;6.90;3.80;;;;;;;8.36;69.47;98937.61;235886;1192;22525;-76
2021/11/08 09:10:30;;;;;;;7.80;3.20;;;;;;;8.63;68.12;98936.20;236591;1192;22517;-73
2021/11/08 09:15:36;;;;;;;8.40;3.50;;;;;;;8.84;67.13;98938.90;235690;1192;22425;-74
2021/11/08 09:20:41;;;;;;;8.30;2.30;;;;;;;8.98;66.09;98941.04;235619;1193;24119;-77
2021/11/08 09:25:44;;;;;;;7.50;2.80;;;;;;;9.09;65.93;98941.13;236069;1193;24060;-75
2021/11/08 09:30:47;;;;;;;5.00;2.30;;;;;;;9.32;65.79;98939.77;236032;1192;24047;-77
2021/11/08 09:35:53;;;;;;;3.90;2.00;;;;;;;9.67;65.44;98943.52;236014;1197;25491;-73
2021/11/08 09:40:56;;;;;;;3.90;1.80;;;;;;;9.89;64.06;98942.89;235661;1199;24072;-75
2021/11/08 09:45:59;;;;;;;2.90;1.40;;;;;;;10.01;63.88;98952.20;235757;1192;24856;-75
2021/11/08 09:51:02;;;;;;;2.00;1.10;;;;;;;10.13;63.69;98958.60;235954;1199;22462;-75
2021/11/08 09:56:07;;;;;;;1.30;0.70;;;;;;;10.24;62.41;98969.36;235672;1199;24547;-75
2021/11/08 10:01:27;;;;;;;2.30;0.80;;;;;;;10.19;62.51;98971.92;235541;1199;24098;-76
2021/11/08 10:06:32;;;;;;;3.30;1.10;;;;;;;10.20;63.03;98982.52;235437;1199;22432;-73
2021/11/08 10:11:39;;;;;;;1.60;1.10;;;;;;;10.15;62.64;98989.14;235592;1199;23998;-75
2021/11/08 10:16:43;;;;;;;2.90;1.20;;;;;;;10.08;63.05;98988.67;235943;1199;25123;-74
2021/11/08 10:21:52;;;;;;;1.50;1.00;;;;;;;10.03;63.36;98991.43;235217;1200;22501;-73
2021/11/08 10:27:01;;;;;;;2.60;0.90;;;;;;;10.04;63.70;98993.84;236020;1192;22431;-76
2021/11/08 10:32:08;;;;;;;4.50;1.30;;;;;;;10.01;63.44;98996.52;235617;1200;24911;-75
2021/11/08 10:37:11;;;;;;;2.30;1.40;;;;;;;9.98;63.92;98998.89;235274;1200;22454;-75
2021/11/08 10:42:22;;;;;;;3.30;1.80;;;;;;;10.03;64.30;98998.07;236043;1193;22422;-75
2021/11/08 10:47:28;;;;;;;5.80;3.30;;;;;;;10.07;63.98;98991.61;235455;1186;22462;-73
2021/11/08 10:52:32;;;;;;;2.20;1.20;;;;;;;9.95;63.65;98989.34;235671;1193;24056;-75
2021/11/08 10:57:35;;;;;;;1.30;1.00;;;;;;;9.91;63.93;98985.41;235850;1199;22480;-75
2021/11/08 11:02:41;;;;;;;2.10;1.20;;;;;;;9.87;63.93;98989.09;236078;1199;22969;-74
2021/11/08 11:07:43;;;;;;;3.20;1.40;;;;;;;9.84;63.97;98984.23;236102;1193;24675;-75
2021/11/08 11:12:48;;;;;;;3.40;1.50;;;;;;;9.83;63.03;98986.75;235665;1193;23078;-77
2021/11/08 11:17:58;;;;;;;1.90;1.10;;;;;;;9.82;63.33;98982.27;235816;1199;22414;-76
2021/11/08 11:23:06;;;;;;;1.70;1.00;;;;;;;9.68;61.61;98981.65;235981;1199;22420;-76
2021/11/08 11:28:11;;;;;;;2.40;1.10;;;;;;;9.50;62.60;98989.02;236120;1193;25117;-76
2021/11/08 11:33:18;;;;;;;4.80;1.70;;;;;;;9.42;63.12;98987.89;235959;1193;22479;-74
2021/11/08 11:38:28;;;;;;;3.50;1.70;;;;;;;9.47;63.23;98982.63;236020;1198;25231;-73
2021/11/08 11:43:42;;;;;;;3.30;1.90;;;;;;;9.47;63.18;98986.59;236125;1192;22900;-72
2021/11/08 11:49:06;;;;;;;2.50;0.80;;;;;;;9.43;63.48;98986.88;235943;1198;24072;-81
2021/11/08 11:54:11;;;;;;;3.00;1.00;;;;;;;9.43;63.99;98989.23;236012;1192;25095;-77
2021/11/08 11:59:15;;;;;;;18.90;2.20;;;;;;;9.46;64.38;98983.61;235954;1193;23170;-71
2021/11/08 12:04:21;;;;;;;5.00;1.60;;;;;;;9.48;64.47;98985.99;236106;1199;22422;-71
2021/11/08 12:09:33;;;;;;;3.30;1.50;;;;;;;9.61;64.78;98987.80;235773;1192;25270;-74
2021/11/08 12:14:37;;;;;;;4.30;1.30;;;;;;;9.71;64.54;98988.06;236036;1199;22959;-73
2021/11/08 12:19:42;;;;;;;2.80;1.50;;;;;;;9.83;64.59;98991.03;235739;1193;22421;-73
2021/11/08 12:24:57;;;;;;;4.30;1.60;;;;;;;9.86;64.23;98992.45;235591;1186;24046;-72
2021/11/08 12:30:00;;;;;;;2.60;1.40;;;;;;;9.77;64.51;98989.03;235668;1198;22399;-76
2021/11/08 12:35:13;;;;;;;2.30;1.60;;;;;;;9.72;64.85;98987.03;236285;1198;26266;-74
2021/11/08 12:40:30;;;;;;;2.10;1.70;;;;;;;9.68;64.97;98985.56;236230;1192;22434;-75
2021/11/08 12:45:40;;;;;;;4.20;2.80;;;;;;;9.71;65.56;98982.61;236121;1191;24050;-77
2021/11/08 12:50:47;;;;;;;5.60;2.00;;;;;;;9.85;65.93;98980.32;235888;1193;26151;-74
2021/11/08 12:55:52;;;;;;;2.20;1.20;;;;;;;9.94;65.47;98978.11;235864;1199;25144;-77
2021/11/08 13:01:01;;;;;;;1.90;1.60;;;;;;;9.86;65.27;98981.81;236146;1193;24075;-77
2021/11/08 13:06:06;;;;;;;2.70;1.40;;;;;;;9.71;65.11;98983.57;236195;1199;24268;-74
2021/11/08 13:11:11;;;;;;;2.20;1.40;;;;;;;9.55;65.40;98987.30;235952;1199;22429;-78
2021/11/08 13:16:16;;;;;;;2.50;1.40;;;;;;;9.51;65.74;98994.27;236303;1198;22424;-74
2021/11/08 13:21:24;;;;;;;3.20;1.70;;;;;;;9.51;65.91;98991.70;236224;1193;25355;-76
2021/11/08 13:26:29;;;;;;;1.50;1.10;;;;;;;9.61;66.20;98988.06;236135;1199;22506;-74
2021/11/08 13:31:33;;;;;;;2.30;1.20;;;;;;;9.66;65.87;98986.42;235826;1199;24029;-75
2021/11/08 13:36:36;;;;;;;2.00;1.20;;;;;;;9.67;65.93;98987.17;235944;1199;22450;-76
2021/11/08 13:41:40;;;;;;;2.10;1.40;;;;;;;9.64;65.80;98987.40;235980;1193;22499;-76
2021/11/08 13:46:52;;;;;;;1.00;0.90;;;;;;;9.58;65.80;98989.58;236164;1199;23187;-78
2021/11/08 13:51:58;;;;;;;3.00;1.40;;;;;;;9.55;65.96;98997.46;236106;1192;22548;-77
2021/11/08 13:57:07;;;;;;;3.20;1.80;;;;;;;9.54;66.11;98997.25;235595;1185;24073;-76
2021/11/08 14:02:13;;;;;;;4.60;1.60;;;;;;;9.42;65.84;99002.49;235786;1195;23983;-76
2021/11/08 14:07:21;;;;;;;2.60;1.60;;;;;;;9.32;66.25;99006.92;235759;1192;24163;-76
2021/11/08 14:12:28;;;;;;;2.90;2.10;;;;;;;9.28;66.33;99012.29;235811;1186;24248;-73
2021/11/08 14:17:47;;;;;;;2.60;1.80;;;;;;;9.10;66.61;99022.72;235665;1192;22730;-75
2021/11/08 14:23:08;;;;;;;3.20;2.20;;;;;;;8.91;67.23;99018.07;236013;1193;24072;-75
2021/11/08 14:28:11;;;;;;;4.50;2.20;;;;;;;8.78;67.67;99022.64;235599;1199;24047;-73
2021/11/08 14:33:14;;;;;;;4.50;2.70;;;;;;;8.68;68.42;99025.44;235457;1192;24100;-74
2021/11/08 14:38:35;;;;;;;3.70;2.20;;;;;;;8.53;68.79;99029.52;235654;1199;22438;-74
2021/11/08 14:43:37;;;;;;;4.20;2.20;;;;;;;8.48;69.39;99034.59;236195;1193;24107;-75
2021/11/08 14:48:40;;;;;;;6.50;4.40;;;;;;;8.50;69.59;99043.35;235821;1199;22645;-75
2021/11/08 14:54:05;;;;;;;6.70;3.60;;;;;;;8.50;69.76;99049.86;235568;1193;22438;-74
2021/11/08 14:59:10;;;;;;;7.40;3.60;;;;;;;8.47;69.77;99054.61;235977;1193;25044;-73
2021/11/08 15:04:22;;;;;;;5.90;3.70;;;;;;;8.44;70.03;99051.17;235952;1196;22525;-73
2021/11/08 15:09:25;;;;;;;7.30;4.20;;;;;;;8.43;70.11;99053.61;235912;1193;22477;-75
2021/11/08 15:14:28;;;;;;;6.30;4.00;;;;;;;8.40;70.31;99060.77;235842;1199;25011;-74
2021/11/08 15:19:45;;;;;;;4.40;3.00;;;;;;;8.40;70.46;99066.69;235559;1199;25281;-74
2021/11/08 15:24:48;;;;;;;6.40;3.00;;;;;;;8.35;70.53;99069.27;235704;1192;22552;-75
2021/11/08 15:30:03;;;;;;;4.70;3.50;;;;;;;8.34;70.63;99070.06;235500;1199;22437;-75
2021/11/08 15:35:11;;;;;;;5.80;4.30;;;;;;;8.31;70.89;99079.56;235556;1199;24079;-75
2021/11/08 15:40:14;;;;;;;7.60;4.50;;;;;;;8.29;71.09;99083.94;236185;1198;23605;-75
2021/11/08 15:45:17;;;;;;;12.80;7.40;;;;;;;8.25;71.39;99082.39;235583;1198;24158;-75
2021/11/08 15:50:20;;;;;;;10.50;5.90;;;;;;;8.22;71.77;99090.05;235802;1198;25469;-76
2021/11/08 15:55:25;;;;;;;12.90;7.10;;;;;;;8.20;72.03;99095.72;235841;1193;22464;-75
2021/11/08 16:00:30;;;;;;;14.80;6.30;;;;;;;8.19;72.62;99098.23;235741;1194;22451;-76
2021/11/08 16:05:33;;;;;;;10.00;6.50;;;;;;;8.08;72.93;99103.96;235913;1184;22444;-74
2021/11/08 16:10:37;;;;;;;9.20;6.20;;;;;;;7.96;73.26;99109.70;235569;1199;24116;-75
2021/11/08 16:15:47;;;;;;;11.50;6.90;;;;;;;7.80;73.42;99112.80;235858;1199;25003;-76
2021/11/08 16:20:54;;;;;;;15.70;9.30;;;;;;;7.72;73.76;99124.61;235657;1193;24055;-75
2021/11/08 16:25:56;;;;;;;18.10;10.60;;;;;;;7.68;74.26;99127.43;235468;1199;24073;-75
2021/11/08 16:31:06;;;;;;;15.20;10.10;;;;;;;7.67;74.53;99134.81;235473;1199;22993;-76
2021/11/08 16:36:10;;;;;;;17.70;10.10;;;;;;;7.61;74.70;99139.77;235896;1183;25188;-76
2021/11/08 16:41:15;;;;;;;18.60;10.50;;;;;;;7.52;74.84;99145.73;235997;1184;24002;-76
2021/11/08 16:46:23;;;;;;;14.90;9.50;;;;;;;7.41;75.06;99149.84;236082;1193;22433;-75
2021/11/08 16:51:43;;;;;;;17.20;10.20;;;;;;;7.29;75.41;99154.52;235734;1199;25042;-76
2021/11/08 16:56:48;;;;;;;13.40;9.30;;;;;;;7.16;75.68;99164.45;235901;1199;24046;-75
2021/11/08 17:01:51;;;;;;;20.20;12.80;;;;;;;7.08;75.88;99171.80;235694;1184;24127;-74
2021/11/08 17:06:56;;;;;;;19.30;13.90;;;;;;;7.06;76.43;99169.23;235838;1198;24060;-76
2021/11/08 17:17:22;;;;;;;22.50;14.20;;;;;;;7.12;76.86;99189.20;235814;1192;25606;-74
2021/11/08 17:22:25;;;;;;;26.30;15.50;;;;;;;7.15;77.14;99203.45;236061;1199;22451;-75
2021/11/08 17:27:30;;;;;;;28.80;17.10;;;;;;;7.20;77.19;99202.15;235854;1198;22451;-76
2021/11/08 17:32:53;;;;;;;21.80;13.50;;;;;;;7.18;77.43;99203.64;235998;1199;22439;-76
2021/11/08 17:37:57;;;;;;;19.30;11.50;;;;;;;7.18;77.35;99208.05;235524;1199;22557;-75
2021/11/08 17:43:01;;;;;;;19.60;12.70;;;;;;;7.21;77.87;99215.42;235386;1199;25728;-75
2021/11/08 17:48:13;;;;;;;17.30;10.90;;;;;;;7.18;77.91;99218.17;235759;1199;22430;-75
2021/11/08 17:53:17;;;;;;;16.70;10.70;;;;;;;7.17;78.18;99225.10;235929;1199;25152;-76
2021/11/08 17:58:20;;;;;;;13.90;9.00;;;;;;;7.15;78.19;99228.23;235275;1193;24056;-75
2021/11/08 18:03:25;;;;;;;15.10;9.10;;;;;;;7.15;78.35;99233.02;235325;1200;22422;-73
2021/11/08 18:08:27;;;;;;;14.50;8.90;;;;;;;7.16;78.66;99238.08;235735;1199;26263;-75
2021/11/08 18:13:30;;;;;;;14.20;9.30;;;;;;;7.15;78.90;99233.14;235456;1199;25188;-75
2021/11/08 18:18:35;;;;;;;13.60;10.10;;;;;;;7.17;79.07;99235.75;235425;1199;24054;-75
2021/11/08 18:23:44;;;;;;;11.60;8.90;;;;;;;7.20;79.09;99238.98;235360;1199;24060;-75
2021/11/08 18:28:49;;;;;;;14.20;9.10;;;;;;;7.22;79.15;99243.31;235448;1199;24340;-75
2021/11/08 18:33:53;;;;;;;12.90;8.10;;;;;;;7.25;79.40;99246.90;235346;1199;24075;-75
2021/11/08 18:38:57;;;;;;;13.20;8.00;;;;;;;7.26;79.37;99254.48;235805;1194;22487;-76
2021/11/08 18:44:01;;;;;;;12.80;8.20;;;;;;;7.29;79.61;99252.48;235740;1193;24017;-74
2021/11/08 18:49:14;;;;;;;10.60;8.90;;;;;;;7.29;79.44;99253.55;235737;1199;24034;-75
2021/11/08 18:54:38;;;;;;;10.40;8.00;;;;;;;7.24;79.53;99259.95;235623;1193;25258;-75
2021/11/08 18:59:41;;;;;;;12.10;8.70;;;;;;;7.18;79.55;99264.38;235348;1199;25205;-75
2021/11/08 19:04:46;;;;;;;9.80;6.60;;;;;;;7.16;79.73;99267.14;235808;1193;25115;-76
2021/11/08 19:09:57;;;;;;;10.20;7.80;;;;;;;7.16;79.70;99266.32;236008;1199;22434;-73
2021/11/08 19:15:00;;;;;;;9.40;7.70;;;;;;;7.13;79.85;99268.50;235556;1199;25208;-75
2021/11/08 19:20:05;;;;;;;9.20;7.40;;;;;;;7.11;80.04;99272.54;235579;1193;22446;-75
2021/11/08 19:25:09;;;;;;;9.20;6.90;;;;;;;7.10;79.96;99279.39;235890;1199;22439;-75
2021/11/08 19:30:16;;;;;;;12.10;7.90;;;;;;;7.05;80.11;99278.66;235434;1199;22450;-77
2021/11/08 19:40:40;;;;;;;11.60;8.80;;;;;;;6.97;80.50;99285.34;235549;1200;22468;-77
2021/11/08 19:45:46;;;;;;;13.50;9.10;;;;;;;6.98;80.70;99286.63;235490;1200;22561;-73
2021/11/08 19:50:50;;;;;;;14.20;9.10;;;;;;;6.98;80.83;99292.98;235223;1195;24060;-76
2021/11/08 19:55:54;;;;;;;15.50;9.80;;;;;;;6.97;80.95;99292.01;235700;1177;22436;-75
2021/11/08 20:00:58;;;;;;;15.60;10.30;;;;;;;6.97;80.72;99297.06;235360;1200;22449;-75
2021/11/08 20:06:01;;;;;;;17.30;12.00;;;;;;;6.95;80.94;99299.13;235807;1199;22481;-74
2021/11/08 20:11:04;;;;;;;18.90;12.70;;;;;;;6.91;80.79;99299.67;235875;1193;22468;-74
2021/11/08 20:16:10;;;;;;;22.00;14.40;;;;;;;6.82;81.02;99308.27;235612;1199;22417;-76
2021/11/08 20:21:15;;;;;;;22.80;13.90;;;;;;;6.79;81.16;99314.45;235123;1200;24100;-76
2021/11/08 20:26:20;;;;;;;22.30;13.40;;;;;;;6.79;81.22;99315.79;235533;1193;24088;-75
2021/11/08 21:14:19;;;;;;;18.90;13.50;;;;;;;6.78;82.15;99346.35;235852;1199;22439;-76
2021/11/08 21:19:24;;;;;;;18.70;12.10;;;;;;;6.81;82.27;99350.11;236058;1199;24036;-73
2021/11/08 21:24:30;;;;;;;18.90;12.50;;;;;;;6.85;82.30;99353.23;235640;1198;22468;-76
2021/11/08 21:40:32;;;;;;;21.90;14.80;;;;;;;6.79;82.57;99355.09;235615;1199;26164;-75
2021/11/08 21:45:39;;;;;;;17.20;11.50;;;;;;;6.79;82.53;99357.16;235324;1186;24130;-75
2021/11/08 21:50:44;;;;;;;16.50;11.70;;;;;;;6.81;82.53;99353.35;235689;1199;25208;-76
2021/11/08 21:55:50;;;;;;;15.10;11.40;;;;;;;6.81;82.83;99359.53;235178;1200;22484;-76
2021/11/08 22:01:14;;;;;;;14.90;10.40;;;;;;;6.85;82.81;99365.23;235454;1199;22473;-75
2021/11/08 22:06:17;;;;;;;13.80;10.60;;;;;;;6.92;82.96;99373.14;235227;1193;24674;-75
2021/11/08 22:11:19;;;;;;;16.90;9.10;;;;;;;6.97;82.96;99373.62;235869;1199;22471;-76
2021/11/08 22:16:23;;;;;;;17.50;10.50;;;;;;;7.00;82.85;99379.30;235815;1199;22450;-73
2021/11/08 22:21:26;;;;;;;16.90;11.30;;;;;;;7.08;83.09;99382.42;235113;1200;24078;-76
2021/11/08 22:26:29;;;;;;;17.30;11.50;;;;;;;7.09;82.75;99383.34;235080;1200;24068;-76
2021/11/08 22:31:32;;;;;;;15.20;10.50;;;;;;;7.07;82.70;99386.19;235867;1199;25127;-76
2021/11/08 22:36:44;;;;;;;15.10;10.60;;;;;;;7.03;82.57;99390.52;235184;1200;26235;-76
2021/11/08 22:41:48;;;;;;;13.90;9.40;;;;;;;7.02;82.49;99396.02;235108;1200;22507;-76
2021/11/08 22:46:53;;;;;;;16.50;10.70;;;;;;;7.00;82.63;99399.82;235042;1201;24890;-77
2021/11/08 22:51:55;;;;;;;18.30;10.70;;;;;;;7.00;82.64;99400.34;235055;1200;25101;-75
2021/11/08 22:57:09;;;;;;;17.20;10.10;;;;;;;7.01;82.93;99401.64;235201;1200;22438;-75
2021/11/08 23:02:25;;;;;;;14.90;9.00;;;;;;;7.03;82.70;99401.23;235215;1194;22451;-75
2021/11/08 23:07:28;;;;;;;12.40;8.60;;;;;;;7.02;82.71;99404.42;235447;1193;25319;-76
2021/11/08 23:12:32;;;;;;;13.70;8.20;;;;;;;6.99;82.65;99409.01;235345;1199;24166;-75
2021/11/08 23:17:54;;;;;;;11.50;8.70;;;;;;;6.95;82.31;99405.19;235666;1193;24245;-76
2021/11/08 23:22:57;;;;;;;13.00;8.10;;;;;;;6.94;82.47;99412.95;235710;1184;24158;-76
2021/11/08 23:28:01;;;;;;;14.90;9.30;;;;;;;6.92;82.48;99408.25;235074;1187;24089;-75
2021/11/08 23:33:08;;;;;;;15.50;9.00;;;;;;;6.92;82.52;99411.83;235895;1194;24075;-75
2021/11/08 23:38:24;;;;;;;12.60;8.50;;;;;;;6.97;82.69;99413.95;235294;1192;22478;-75
2021/11/08 23:43:49;;;;;;;13.70;8.10;;;;;;;6.95;82.34;99417.77;235598;1193;24047;-75
2021/11/08 23:49:06;;;;;;;12.30;7.40;;;;;;;6.84;82.27;99422.16;235685;1194;22429;-75
2021/11/08 23:54:09;;;;;;;13.60;8.00;;;;;;;6.77;82.25;99422.83;235742;1199;24069;-76
2021/11/08 23:59:11;;;;;;;10.50;7.70;;;;;;;6.76;82.50;99429.30;235031;1200;25211;-75
